sensor_id;sensor_type;location;lat;lon;timestamp;P1;durP1;ratioP1;P2;durP2;ratioP2
65831;SDS011;52593;42.648;23.332;2023-07-24T00:00:25;16.40;;;6.40;;
65831;SDS011;52593;42.648;23.332;2023-07-24T00:02:51;13.10;;;6.23;;
65831;SDS011;52593;42.648;23.332;2023-07-24T00:05:18;13.65;;;6.25;;
65831;SDS011;52593;42.648;23.332;2023-07-24T00:07:43;13.27;;;6.30;;
65831;SDS011;52593;42.648;23.332;2023-07-24T00:10:09;12.70;;;5.93;;
65831;SDS011;52593;42.648;23.332;2023-07-24T00:12:34;12.43;;;6.13;;
65831;SDS011;52593;42.648;23.332;2023-07-24T00:15:00;13.43;;;5.75;;
65831;SDS011;52593;42.648;23.332;2023-07-24T00:17:25;13.33;;;6.57;;
65831;SDS011;52593;42.648;23.332;2023-07-24T00:19:51;13.95;;;6.50;;
65831;SDS011;52593;42.648;23.332;2023-07-24T00:22:16;13.67;;;6.77;;
65831;SDS011;52593;42.648;23.332;2023-07-24T00:24:42;14.93;;;6.73;;
65831;SDS011;52593;42.648;23.332;2023-07-24T00:27:07;16.17;;;6.80;;
65831;SDS011;52593;42.648;23.332;2023-07-24T00:29:32;13.00;;;6.53;;
65831;SDS011;52593;42.648;23.332;2023-07-24T00:31:58;13.10;;;5.77;;
65831;SDS011;52593;42.648;23.332;2023-07-24T00:34:23;15.50;;;7.00;;
65831;SDS011;52593;42.648;23.332;2023-07-24T00:36:48;13.20;;;6.50;;
65831;SDS011;52593;42.648;23.332;2023-07-24T00:39:14;12.60;;;6.40;;
65831;SDS011;52593;42.648;23.332;2023-07-24T00:41:40;14.05;;;6.80;;
65831;SDS011;52593;42.648;23.332;2023-07-24T00:44:06;14.38;;;6.45;;
65831;SDS011;52593;42.648;23.332;2023-07-24T00:46:31;16.27;;;6.60;;
65831;SDS011;52593;42.648;23.332;2023-07-24T00:48:58;13.55;;;6.55;;
65831;SDS011;52593;42.648;23.332;2023-07-24T00:51:25;14.95;;;6.25;;
65831;SDS011;52593;42.648;23.332;2023-07-24T00:53:55;13.23;;;6.88;;
65831;SDS011;52593;42.648;23.332;2023-07-24T00:56:22;15.77;;;6.80;;
65831;SDS011;52593;42.648;23.332;2023-07-24T00:58:47;12.98;;;6.32;;
65831;SDS011;52593;42.648;23.332;2023-07-24T01:01:14;13.45;;;6.30;;
65831;SDS011;52593;42.648;23.332;2023-07-24T01:03:41;16.35;;;6.88;;
65831;SDS011;52593;42.648;23.332;2023-07-24T01:06:08;13.90;;;6.30;;
65831;SDS011;52593;42.648;23.332;2023-07-24T01:08:34;13.45;;;6.28;;
65831;SDS011;52593;42.648;23.332;2023-07-24T01:11:03;13.75;;;6.35;;
65831;SDS011;52593;42.648;23.332;2023-07-24T01:13:42;14.23;;;6.30;;
65831;SDS011;52593;42.648;23.332;2023-07-24T01:16:14;11.95;;;6.20;;
65831;SDS011;52593;42.648;23.332;2023-07-24T01:18:43;13.90;;;6.53;;
65831;SDS011;52593;42.648;23.332;2023-07-24T01:21:10;12.82;;;6.10;;
65831;SDS011;52593;42.648;23.332;2023-07-24T01:26:15;12.25;;;6.28;;
65831;SDS011;52593;42.648;23.332;2023-07-24T01:28:41;12.50;;;6.38;;
65831;SDS011;52593;42.648;23.332;2023-07-24T01:31:07;14.90;;;6.47;;
65831;SDS011;52593;42.648;23.332;2023-07-24T01:33:32;13.03;;;6.33;;
65831;SDS011;52593;42.648;23.332;2023-07-24T01:36:00;14.75;;;6.68;;
65831;SDS011;52593;42.648;23.332;2023-07-24T01:38:28;12.88;;;6.30;;
65831;SDS011;52593;42.648;23.332;2023-07-24T01:40:56;14.93;;;6.80;;
65831;SDS011;52593;42.648;23.332;2023-07-24T01:43:22;13.32;;;6.40;;
65831;SDS011;52593;42.648;23.332;2023-07-24T01:45:49;14.50;;;6.57;;
65831;SDS011;52593;42.648;23.332;2023-07-24T01:48:14;14.17;;;7.17;;
65831;SDS011;52593;42.648;23.332;2023-07-24T01:50:40;14.60;;;7.03;;
65831;SDS011;52593;42.648;23.332;2023-07-24T01:53:05;14.23;;;6.57;;
65831;SDS011;52593;42.648;23.332;2023-07-24T01:55:30;12.50;;;6.30;;
65831;SDS011;52593;42.648;23.332;2023-07-24T01:57:56;14.17;;;6.47;;
65831;SDS011;52593;42.648;23.332;2023-07-24T02:00:21;18.73;;;6.65;;
65831;SDS011;52593;42.648;23.332;2023-07-24T02:02:47;17.17;;;6.40;;
65831;SDS011;52593;42.648;23.332;2023-07-24T02:05:12;13.90;;;6.73;;
65831;SDS011;52593;42.648;23.332;2023-07-24T02:07:37;16.57;;;6.87;;
65831;SDS011;52593;42.648;23.332;2023-07-24T02:10:03;16.40;;;6.53;;
65831;SDS011;52593;42.648;23.332;2023-07-24T02:12:29;16.02;;;6.68;;
65831;SDS011;52593;42.648;23.332;2023-07-24T02:14:54;15.97;;;7.17;;
65831;SDS011;52593;42.648;23.332;2023-07-24T02:17:20;16.77;;;7.15;;
65831;SDS011;52593;42.648;23.332;2023-07-24T02:19:45;16.33;;;6.97;;
65831;SDS011;52593;42.648;23.332;2023-07-24T02:22:11;16.33;;;6.65;;
65831;SDS011;52593;42.648;23.332;2023-07-24T02:24:36;17.13;;;6.90;;
65831;SDS011;52593;42.648;23.332;2023-07-24T02:27:02;16.10;;;6.83;;
65831;SDS011;52593;42.648;23.332;2023-07-24T02:29:27;15.05;;;6.65;;
65831;SDS011;52593;42.648;23.332;2023-07-24T02:31:53;17.13;;;7.20;;
65831;SDS011;52593;42.648;23.332;2023-07-24T02:34:20;17.02;;;7.10;;
65831;SDS011;52593;42.648;23.332;2023-07-24T02:36:49;17.20;;;6.88;;
65831;SDS011;52593;42.648;23.332;2023-07-24T02:39:15;17.53;;;6.50;;
65831;SDS011;52593;42.648;23.332;2023-07-24T02:41:40;15.70;;;6.93;;
65831;SDS011;52593;42.648;23.332;2023-07-24T02:44:06;16.63;;;6.63;;
65831;SDS011;52593;42.648;23.332;2023-07-24T02:46:31;18.23;;;6.60;;
65831;SDS011;52593;42.648;23.332;2023-07-24T02:48:56;16.73;;;6.47;;
65831;SDS011;52593;42.648;23.332;2023-07-24T02:51:22;16.20;;;6.80;;
65831;SDS011;52593;42.648;23.332;2023-07-24T02:53:47;14.30;;;6.70;;
65831;SDS011;52593;42.648;23.332;2023-07-24T02:56:13;16.30;;;7.30;;
65831;SDS011;52593;42.648;23.332;2023-07-24T02:58:38;19.17;;;7.43;;
65831;SDS011;52593;42.648;23.332;2023-07-24T03:01:04;16.08;;;6.93;;
65831;SDS011;52593;42.648;23.332;2023-07-24T03:03:31;18.08;;;7.05;;
65831;SDS011;52593;42.648;23.332;2023-07-24T03:05:57;16.13;;;6.93;;
65831;SDS011;52593;42.648;23.332;2023-07-24T03:08:23;20.33;;;7.73;;
65831;SDS011;52593;42.648;23.332;2023-07-24T03:10:48;17.03;;;6.90;;
65831;SDS011;52593;42.648;23.332;2023-07-24T03:13:13;20.73;;;7.40;;
65831;SDS011;52593;42.648;23.332;2023-07-24T03:15:39;17.57;;;7.00;;
65831;SDS011;52593;42.648;23.332;2023-07-24T03:18:04;16.03;;;7.10;;
65831;SDS011;52593;42.648;23.332;2023-07-24T03:20:29;19.97;;;7.67;;
65831;SDS011;52593;42.648;23.332;2023-07-24T03:22:55;16.93;;;7.10;;
65831;SDS011;52593;42.648;23.332;2023-07-24T03:25:20;18.30;;;7.43;;
65831;SDS011;52593;42.648;23.332;2023-07-24T03:27:46;17.87;;;7.17;;
65831;SDS011;52593;42.648;23.332;2023-07-24T03:30:11;16.87;;;7.23;;
65831;SDS011;52593;42.648;23.332;2023-07-24T03:32:37;14.37;;;6.90;;
65831;SDS011;52593;42.648;23.332;2023-07-24T03:35:03;16.40;;;7.10;;
65831;SDS011;52593;42.648;23.332;2023-07-24T03:37:30;19.03;;;7.20;;
65831;SDS011;52593;42.648;23.332;2023-07-24T03:39:56;14.65;;;6.88;;
65831;SDS011;52593;42.648;23.332;2023-07-24T03:42:28;15.50;;;6.67;;
65831;SDS011;52593;42.648;23.332;2023-07-24T03:44:57;16.83;;;7.32;;
65831;SDS011;52593;42.648;23.332;2023-07-24T03:47:23;15.63;;;7.18;;
65831;SDS011;52593;42.648;23.332;2023-07-24T03:49:49;16.67;;;7.78;;
65831;SDS011;52593;42.648;23.332;2023-07-24T03:52:15;16.43;;;7.37;;
65831;SDS011;52593;42.648;23.332;2023-07-24T03:54:40;16.05;;;8.18;;
65831;SDS011;52593;42.648;23.332;2023-07-24T03:57:06;17.77;;;6.93;;
65831;SDS011;52593;42.648;23.332;2023-07-24T03:59:31;16.07;;;7.50;;
65831;SDS011;52593;42.648;23.332;2023-07-24T04:01:57;14.93;;;6.90;;
65831;SDS011;52593;42.648;23.332;2023-07-24T04:04:23;15.67;;;6.90;;
65831;SDS011;52593;42.648;23.332;2023-07-24T04:06:48;18.15;;;7.35;;
65831;SDS011;52593;42.648;23.332;2023-07-24T04:09:13;16.77;;;7.07;;
65831;SDS011;52593;42.648;23.332;2023-07-24T04:11:44;19.60;;;7.03;;
65831;SDS011;52593;42.648;23.332;2023-07-24T04:14:10;18.70;;;7.88;;
65831;SDS011;52593;42.648;23.332;2023-07-24T04:16:36;22.30;;;7.90;;
65831;SDS011;52593;42.648;23.332;2023-07-24T04:19:01;25.20;;;8.57;;
65831;SDS011;52593;42.648;23.332;2023-07-24T04:21:27;18.88;;;7.75;;
65831;SDS011;52593;42.648;23.332;2023-07-24T04:23:52;19.83;;;8.07;;
65831;SDS011;52593;42.648;23.332;2023-07-24T04:26:18;22.20;;;8.20;;
65831;SDS011;52593;42.648;23.332;2023-07-24T04:28:43;23.03;;;8.13;;
65831;SDS011;52593;42.648;23.332;2023-07-24T04:31:09;18.60;;;8.00;;
65831;SDS011;52593;42.648;23.332;2023-07-24T04:33:34;22.03;;;7.77;;
65831;SDS011;52593;42.648;23.332;2023-07-24T04:35:59;22.13;;;8.20;;
65831;SDS011;52593;42.648;23.332;2023-07-24T04:38:25;20.57;;;7.97;;
65831;SDS011;52593;42.648;23.332;2023-07-24T04:40:50;18.40;;;7.20;;
65831;SDS011;52593;42.648;23.332;2023-07-24T04:43:16;17.63;;;7.73;;
65831;SDS011;52593;42.648;23.332;2023-07-24T04:45:41;28.23;;;7.90;;
65831;SDS011;52593;42.648;23.332;2023-07-24T04:48:06;16.33;;;7.50;;
65831;SDS011;52593;42.648;23.332;2023-07-24T04:50:32;19.20;;;7.53;;
65831;SDS011;52593;42.648;23.332;2023-07-24T04:52:58;17.20;;;7.07;;
65831;SDS011;52593;42.648;23.332;2023-07-24T04:55:24;15.80;;;6.85;;
65831;SDS011;52593;42.648;23.332;2023-07-24T04:57:49;16.77;;;7.07;;
65831;SDS011;52593;42.648;23.332;2023-07-24T05:00:15;18.33;;;7.30;;
65831;SDS011;52593;42.648;23.332;2023-07-24T05:02:40;20.13;;;7.67;;
65831;SDS011;52593;42.648;23.332;2023-07-24T05:05:06;16.97;;;6.70;;
65831;SDS011;52593;42.648;23.332;2023-07-24T05:07:31;20.58;;;7.93;;
65831;SDS011;52593;42.648;23.332;2023-07-24T05:09:57;19.00;;;8.13;;
65831;SDS011;52593;42.648;23.332;2023-07-24T05:12:22;18.70;;;8.50;;
65831;SDS011;52593;42.648;23.332;2023-07-24T05:14:48;19.57;;;8.17;;
65831;SDS011;52593;42.648;23.332;2023-07-24T05:17:13;18.20;;;7.70;;
65831;SDS011;52593;42.648;23.332;2023-07-24T05:19:39;18.27;;;7.55;;
65831;SDS011;52593;42.648;23.332;2023-07-24T05:22:04;19.50;;;8.13;;
65831;SDS011;52593;42.648;23.332;2023-07-24T05:24:30;19.45;;;8.55;;
65831;SDS011;52593;42.648;23.332;2023-07-24T05:26:56;19.77;;;8.80;;
65831;SDS011;52593;42.648;23.332;2023-07-24T05:29:21;20.00;;;8.13;;
65831;SDS011;52593;42.648;23.332;2023-07-24T05:31:47;18.27;;;7.67;;
65831;SDS011;52593;42.648;23.332;2023-07-24T05:34:12;19.83;;;8.40;;
65831;SDS011;52593;42.648;23.332;2023-07-24T05:36:37;22.33;;;8.20;;
65831;SDS011;52593;42.648;23.332;2023-07-24T05:39:03;19.10;;;8.30;;
65831;SDS011;52593;42.648;23.332;2023-07-24T05:41:28;18.30;;;7.50;;
65831;SDS011;52593;42.648;23.332;2023-07-24T05:43:53;19.67;;;8.23;;
65831;SDS011;52593;42.648;23.332;2023-07-24T05:46:20;10.50;;;3.90;;
65831;SDS011;52593;42.648;23.332;2023-07-24T05:48:46;14.85;;;5.82;;
65831;SDS011;52593;42.648;23.332;2023-07-24T05:51:11;20.83;;;8.60;;
65831;SDS011;52593;42.648;23.332;2023-07-24T05:53:37;20.53;;;8.07;;
65831;SDS011;52593;42.648;23.332;2023-07-24T05:56:02;19.57;;;8.50;;
65831;SDS011;52593;42.648;23.332;2023-07-24T05:58:28;18.27;;;7.93;;
65831;SDS011;52593;42.648;23.332;2023-07-24T06:00:54;18.92;;;8.88;;
65831;SDS011;52593;42.648;23.332;2023-07-24T06:03:20;19.15;;;7.90;;
65831;SDS011;52593;42.648;23.332;2023-07-24T06:05:52;20.57;;;8.03;;
65831;SDS011;52593;42.648;23.332;2023-07-24T06:08:18;15.05;;;7.60;;
65831;SDS011;52593;42.648;23.332;2023-07-24T06:10:45;19.90;;;8.23;;
65831;SDS011;52593;42.648;23.332;2023-07-24T06:13:12;15.80;;;7.43;;
65831;SDS011;52593;42.648;23.332;2023-07-24T06:15:38;14.88;;;7.30;;
65831;SDS011;52593;42.648;23.332;2023-07-24T06:18:03;16.07;;;7.03;;
65831;SDS011;52593;42.648;23.332;2023-07-24T06:20:29;20.07;;;7.37;;
65831;SDS011;52593;42.648;23.332;2023-07-24T06:22:54;14.83;;;6.90;;
65831;SDS011;52593;42.648;23.332;2023-07-24T06:25:19;13.80;;;6.93;;
65831;SDS011;52593;42.648;23.332;2023-07-24T06:27:45;15.38;;;6.32;;
65831;SDS011;52593;42.648;23.332;2023-07-24T06:30:10;15.30;;;7.53;;
65831;SDS011;52593;42.648;23.332;2023-07-24T06:32:35;14.80;;;6.57;;
65831;SDS011;52593;42.648;23.332;2023-07-24T06:35:01;16.07;;;6.93;;
65831;SDS011;52593;42.648;23.332;2023-07-24T06:37:26;15.93;;;7.07;;
65831;SDS011;52593;42.648;23.332;2023-07-24T06:39:51;21.00;;;7.27;;
65831;SDS011;52593;42.648;23.332;2023-07-24T06:42:17;18.87;;;7.10;;
65831;SDS011;52593;42.648;23.332;2023-07-24T06:44:42;15.33;;;6.77;;
65831;SDS011;52593;42.648;23.332;2023-07-24T06:47:07;14.80;;;7.03;;
65831;SDS011;52593;42.648;23.332;2023-07-24T06:49:33;16.70;;;8.20;;
65831;SDS011;52593;42.648;23.332;2023-07-24T06:51:58;17.33;;;7.37;;
65831;SDS011;52593;42.648;23.332;2023-07-24T06:54:24;16.07;;;7.30;;
65831;SDS011;52593;42.648;23.332;2023-07-24T06:56:49;16.67;;;6.67;;
65831;SDS011;52593;42.648;23.332;2023-07-24T06:59:14;16.07;;;7.30;;
65831;SDS011;52593;42.648;23.332;2023-07-24T07:01:40;18.03;;;7.50;;
65831;SDS011;52593;42.648;23.332;2023-07-24T07:04:05;15.10;;;6.83;;
65831;SDS011;52593;42.648;23.332;2023-07-24T07:06:30;18.10;;;6.93;;
65831;SDS011;52593;42.648;23.332;2023-07-24T07:08:56;16.90;;;8.20;;
65831;SDS011;52593;42.648;23.332;2023-07-24T07:11:21;16.90;;;8.67;;
65831;SDS011;52593;42.648;23.332;2023-07-24T07:13:46;16.47;;;7.60;;
65831;SDS011;52593;42.648;23.332;2023-07-24T07:16:12;14.35;;;7.32;;
65831;SDS011;52593;42.648;23.332;2023-07-24T07:18:37;15.37;;;7.20;;
65831;SDS011;52593;42.648;23.332;2023-07-24T07:21:02;16.10;;;6.97;;
65831;SDS011;52593;42.648;23.332;2023-07-24T07:23:29;16.02;;;7.15;;
65831;SDS011;52593;42.648;23.332;2023-07-24T07:25:54;13.20;;;6.87;;
65831;SDS011;52593;42.648;23.332;2023-07-24T07:28:19;17.23;;;7.37;;
65831;SDS011;52593;42.648;23.332;2023-07-24T07:30:45;15.97;;;7.27;;
65831;SDS011;52593;42.648;23.332;2023-07-24T07:33:10;15.40;;;7.35;;
65831;SDS011;52593;42.648;23.332;2023-07-24T07:35:36;16.07;;;7.10;;
65831;SDS011;52593;42.648;23.332;2023-07-24T07:38:02;14.90;;;6.68;;
65831;SDS011;52593;42.648;23.332;2023-07-24T07:40:28;14.23;;;7.10;;
65831;SDS011;52593;42.648;23.332;2023-07-24T07:42:53;14.68;;;6.80;;
65831;SDS011;52593;42.648;23.332;2023-07-24T07:45:20;16.80;;;6.90;;
65831;SDS011;52593;42.648;23.332;2023-07-24T07:47:45;16.17;;;7.07;;
65831;SDS011;52593;42.648;23.332;2023-07-24T07:50:11;16.85;;;7.65;;
65831;SDS011;52593;42.648;23.332;2023-07-24T07:52:36;18.43;;;7.40;;
65831;SDS011;52593;42.648;23.332;2023-07-24T07:55:02;15.63;;;7.67;;
65831;SDS011;52593;42.648;23.332;2023-07-24T07:57:28;18.50;;;7.90;;
65831;SDS011;52593;42.648;23.332;2023-07-24T07:59:53;17.67;;;7.03;;
65831;SDS011;52593;42.648;23.332;2023-07-24T08:02:18;15.43;;;7.47;;
65831;SDS011;52593;42.648;23.332;2023-07-24T08:04:44;17.03;;;7.27;;
65831;SDS011;52593;42.648;23.332;2023-07-24T08:07:09;18.13;;;7.40;;
65831;SDS011;52593;42.648;23.332;2023-07-24T08:09:35;15.70;;;6.90;;
65831;SDS011;52593;42.648;23.332;2023-07-24T08:12:03;13.93;;;6.68;;
65831;SDS011;52593;42.648;23.332;2023-07-24T08:14:28;16.63;;;7.53;;
65831;SDS011;52593;42.648;23.332;2023-07-24T08:16:54;16.20;;;7.22;;
65831;SDS011;52593;42.648;23.332;2023-07-24T08:19:20;18.20;;;7.60;;
65831;SDS011;52593;42.648;23.332;2023-07-24T08:21:46;16.70;;;7.63;;
65831;SDS011;52593;42.648;23.332;2023-07-24T08:24:12;16.45;;;7.55;;
65831;SDS011;52593;42.648;23.332;2023-07-24T08:26:37;14.80;;;7.37;;
65831;SDS011;52593;42.648;23.332;2023-07-24T08:29:03;17.98;;;8.82;;
65831;SDS011;52593;42.648;23.332;2023-07-24T08:31:29;17.88;;;8.75;;
65831;SDS011;52593;42.648;23.332;2023-07-24T08:33:55;14.93;;;7.43;;
65831;SDS011;52593;42.648;23.332;2023-07-24T08:36:20;14.73;;;7.37;;
65831;SDS011;52593;42.648;23.332;2023-07-24T08:38:46;17.40;;;8.07;;
65831;SDS011;52593;42.648;23.332;2023-07-24T08:41:13;14.43;;;7.30;;
65831;SDS011;52593;42.648;23.332;2023-07-24T08:43:40;16.38;;;8.27;;
65831;SDS011;52593;42.648;23.332;2023-07-24T08:46:07;16.67;;;7.87;;
65831;SDS011;52593;42.648;23.332;2023-07-24T08:48:36;16.33;;;8.27;;
65831;SDS011;52593;42.648;23.332;2023-07-24T08:51:10;21.30;;;10.50;;
65831;SDS011;52593;42.648;23.332;2023-07-24T08:53:38;16.90;;;8.38;;
65831;SDS011;52593;42.648;23.332;2023-07-24T08:56:05;17.88;;;7.80;;
65831;SDS011;52593;42.648;23.332;2023-07-24T08:58:32;17.63;;;7.33;;
65831;SDS011;52593;42.648;23.332;2023-07-24T09:00:58;14.32;;;7.25;;
65831;SDS011;52593;42.648;23.332;2023-07-24T09:03:25;14.05;;;7.45;;
65831;SDS011;52593;42.648;23.332;2023-07-24T09:05:51;17.00;;;7.63;;
65831;SDS011;52593;42.648;23.332;2023-07-24T09:08:16;16.03;;;8.20;;
65831;SDS011;52593;42.648;23.332;2023-07-24T09:10:42;17.65;;;8.00;;
65831;SDS011;52593;42.648;23.332;2023-07-24T09:13:07;17.90;;;7.90;;
65831;SDS011;52593;42.648;23.332;2023-07-24T09:15:42;20.53;;;10.07;;
65831;SDS011;52593;42.648;23.332;2023-07-24T09:18:09;16.63;;;7.38;;
65831;SDS011;52593;42.648;23.332;2023-07-24T09:20:42;20.30;;;8.90;;
65831;SDS011;52593;42.648;23.332;2023-07-24T09:23:09;22.35;;;12.15;;
65831;SDS011;52593;42.648;23.332;2023-07-24T09:25:37;18.08;;;8.52;;
65831;SDS011;52593;42.648;23.332;2023-07-24T09:30:37;16.98;;;8.63;;
65831;SDS011;52593;42.648;23.332;2023-07-24T09:33:03;16.15;;;8.05;;
65831;SDS011;52593;42.648;23.332;2023-07-24T09:35:28;18.00;;;8.82;;
65831;SDS011;52593;42.648;23.332;2023-07-24T09:38:07;17.57;;;8.20;;
65831;SDS011;52593;42.648;23.332;2023-07-24T09:40:52;23.15;;;11.45;;
65831;SDS011;52593;42.648;23.332;2023-07-24T09:43:18;19.90;;;8.03;;
65831;SDS011;52593;42.648;23.332;2023-07-24T09:45:48;18.70;;;8.63;;
65831;SDS011;52593;42.648;23.332;2023-07-24T09:48:15;18.50;;;8.55;;
65831;SDS011;52593;42.648;23.332;2023-07-24T09:50:41;19.77;;;9.60;;
65831;SDS011;52593;42.648;23.332;2023-07-24T09:53:17;18.77;;;9.10;;
65831;SDS011;52593;42.648;23.332;2023-07-24T09:55:57;19.50;;;8.93;;
65831;SDS011;52593;42.648;23.332;2023-07-24T09:58:25;22.17;;;10.77;;
65831;SDS011;52593;42.648;23.332;2023-07-24T10:00:52;21.42;;;9.70;;
65831;SDS011;52593;42.648;23.332;2023-07-24T10:03:19;19.35;;;9.27;;
65831;SDS011;52593;42.648;23.332;2023-07-24T10:05:46;25.17;;;12.30;;
65831;SDS011;52593;42.648;23.332;2023-07-24T10:08:13;18.53;;;9.77;;
65831;SDS011;52593;42.648;23.332;2023-07-24T10:10:40;17.20;;;9.30;;
65831;SDS011;52593;42.648;23.332;2023-07-24T10:13:05;17.13;;;8.33;;
65831;SDS011;52593;42.648;23.332;2023-07-24T10:15:35;16.10;;;8.27;;
65831;SDS011;52593;42.648;23.332;2023-07-24T10:18:03;17.55;;;8.65;;
65831;SDS011;52593;42.648;23.332;2023-07-24T10:20:47;18.95;;;7.90;;
65831;SDS011;52593;42.648;23.332;2023-07-24T10:23:16;17.83;;;9.23;;
65831;SDS011;52593;42.648;23.332;2023-07-24T10:25:43;18.37;;;8.50;;
65831;SDS011;52593;42.648;23.332;2023-07-24T10:28:10;18.95;;;7.85;;
65831;SDS011;52593;42.648;23.332;2023-07-24T10:30:37;18.08;;;7.80;;
65831;SDS011;52593;42.648;23.332;2023-07-24T10:35:54;21.27;;;7.97;;
65831;SDS011;52593;42.648;23.332;2023-07-24T10:38:33;23.43;;;7.77;;
65831;SDS011;52593;42.648;23.332;2023-07-24T10:41:03;14.88;;;6.35;;
65831;SDS011;52593;42.648;23.332;2023-07-24T10:43:39;14.65;;;7.00;;
65831;SDS011;52593;42.648;23.332;2023-07-24T10:46:12;16.25;;;7.20;;
65831;SDS011;52593;42.648;23.332;2023-07-24T10:48:41;18.13;;;6.93;;
65831;SDS011;52593;42.648;23.332;2023-07-24T10:51:08;13.20;;;6.40;;
65831;SDS011;52593;42.648;23.332;2023-07-24T10:53:35;14.65;;;6.72;;
65831;SDS011;52593;42.648;23.332;2023-07-24T10:56:06;14.55;;;6.90;;
65831;SDS011;52593;42.648;23.332;2023-07-24T10:58:32;14.52;;;6.40;;
65831;SDS011;52593;42.648;23.332;2023-07-24T11:00:58;14.05;;;5.35;;
65831;SDS011;52593;42.648;23.332;2023-07-24T11:03:24;15.77;;;6.60;;
65831;SDS011;52593;42.648;23.332;2023-07-24T11:05:50;17.63;;;6.75;;
65831;SDS011;52593;42.648;23.332;2023-07-24T11:08:19;11.73;;;5.57;;
65831;SDS011;52593;42.648;23.332;2023-07-24T11:10:51;15.30;;;6.43;;
65831;SDS011;52593;42.648;23.332;2023-07-24T11:13:22;12.43;;;5.90;;
65831;SDS011;52593;42.648;23.332;2023-07-24T11:15:49;14.88;;;6.28;;
65831;SDS011;52593;42.648;23.332;2023-07-24T11:18:16;14.43;;;6.22;;
65831;SDS011;52593;42.648;23.332;2023-07-24T11:20:45;14.40;;;6.20;;
65831;SDS011;52593;42.648;23.332;2023-07-24T11:23:13;13.90;;;6.15;;
65831;SDS011;52593;42.648;23.332;2023-07-24T11:25:40;12.98;;;6.07;;
65831;SDS011;52593;42.648;23.332;2023-07-24T11:28:06;15.70;;;6.68;;
65831;SDS011;52593;42.648;23.332;2023-07-24T11:30:32;13.87;;;5.80;;
65831;SDS011;52593;42.648;23.332;2023-07-24T11:32:59;15.93;;;6.35;;
65831;SDS011;52593;42.648;23.332;2023-07-24T11:35:27;13.55;;;6.22;;
65831;SDS011;52593;42.648;23.332;2023-07-24T11:37:53;14.13;;;6.38;;
65831;SDS011;52593;42.648;23.332;2023-07-24T11:40:18;17.03;;;6.63;;
65831;SDS011;52593;42.648;23.332;2023-07-24T11:42:46;13.20;;;6.45;;
65831;SDS011;52593;42.648;23.332;2023-07-24T11:45:13;14.32;;;6.38;;
65831;SDS011;52593;42.648;23.332;2023-07-24T11:47:42;16.00;;;5.73;;
65831;SDS011;52593;42.648;23.332;2023-07-24T11:50:12;14.85;;;6.80;;
65831;SDS011;52593;42.648;23.332;2023-07-24T11:52:42;18.52;;;7.47;;
65831;SDS011;52593;42.648;23.332;2023-07-24T11:55:14;16.52;;;7.13;;
65831;SDS011;52593;42.648;23.332;2023-07-24T11:57:41;15.90;;;6.70;;
65831;SDS011;52593;42.648;23.332;2023-07-24T12:00:17;16.08;;;7.18;;
65831;SDS011;52593;42.648;23.332;2023-07-24T12:02:46;17.60;;;6.80;;
65831;SDS011;52593;42.648;23.332;2023-07-24T12:05:12;18.03;;;6.80;;
65831;SDS011;52593;42.648;23.332;2023-07-24T12:07:37;13.13;;;6.33;;
65831;SDS011;52593;42.648;23.332;2023-07-24T12:10:03;15.25;;;6.85;;
65831;SDS011;52593;42.648;23.332;2023-07-24T12:12:40;19.63;;;6.57;;
65831;SDS011;52593;42.648;23.332;2023-07-24T12:15:09;18.43;;;6.70;;
65831;SDS011;52593;42.648;23.332;2023-07-24T12:17:35;15.90;;;6.82;;
65831;SDS011;52593;42.648;23.332;2023-07-24T12:20:01;17.67;;;7.00;;
65831;SDS011;52593;42.648;23.332;2023-07-24T12:22:27;13.63;;;6.13;;
65831;SDS011;52593;42.648;23.332;2023-07-24T12:24:52;13.83;;;6.63;;
65831;SDS011;52593;42.648;23.332;2023-07-24T12:27:18;16.13;;;6.20;;
65831;SDS011;52593;42.648;23.332;2023-07-24T12:29:43;14.13;;;6.80;;
65831;SDS011;52593;42.648;23.332;2023-07-24T12:32:09;18.00;;;6.60;;
65831;SDS011;52593;42.648;23.332;2023-07-24T12:34:34;12.73;;;7.10;;
65831;SDS011;52593;42.648;23.332;2023-07-24T12:37:00;16.13;;;6.90;;
65831;SDS011;52593;42.648;23.332;2023-07-24T12:39:25;13.68;;;6.53;;
65831;SDS011;52593;42.648;23.332;2023-07-24T12:41:50;20.57;;;7.57;;
65831;SDS011;52593;42.648;23.332;2023-07-24T12:44:16;14.07;;;6.53;;
65831;SDS011;52593;42.648;23.332;2023-07-24T12:46:41;13.83;;;6.57;;
65831;SDS011;52593;42.648;23.332;2023-07-24T12:49:07;17.45;;;9.32;;
65831;SDS011;52593;42.648;23.332;2023-07-24T12:51:32;14.77;;;6.83;;
65831;SDS011;52593;42.648;23.332;2023-07-24T12:53:57;14.60;;;6.77;;
65831;SDS011;52593;42.648;23.332;2023-07-24T12:56:23;13.00;;;7.13;;
65831;SDS011;52593;42.648;23.332;2023-07-24T12:58:48;14.68;;;6.68;;
65831;SDS011;52593;42.648;23.332;2023-07-24T13:01:13;12.80;;;6.63;;
65831;SDS011;52593;42.648;23.332;2023-07-24T13:03:39;13.17;;;6.40;;
65831;SDS011;52593;42.648;23.332;2023-07-24T13:06:04;13.63;;;6.00;;
65831;SDS011;52593;42.648;23.332;2023-07-24T13:08:29;13.63;;;7.00;;
65831;SDS011;52593;42.648;23.332;2023-07-24T13:10:55;13.47;;;7.10;;
65831;SDS011;52593;42.648;23.332;2023-07-24T13:13:20;15.07;;;6.77;;
65831;SDS011;52593;42.648;23.332;2023-07-24T13:15:46;13.37;;;6.80;;
65831;SDS011;52593;42.648;23.332;2023-07-24T13:18:11;13.87;;;6.00;;
65831;SDS011;52593;42.648;23.332;2023-07-24T13:20:39;13.20;;;6.25;;
65831;SDS011;52593;42.648;23.332;2023-07-24T13:23:05;13.68;;;7.07;;
65831;SDS011;52593;42.648;23.332;2023-07-24T13:25:31;12.97;;;7.10;;
65831;SDS011;52593;42.648;23.332;2023-07-24T13:27:56;14.47;;;7.20;;
65831;SDS011;52593;42.648;23.332;2023-07-24T13:30:21;13.97;;;6.73;;
65831;SDS011;52593;42.648;23.332;2023-07-24T13:32:47;14.77;;;6.90;;
65831;SDS011;52593;42.648;23.332;2023-07-24T13:35:12;13.90;;;7.00;;
65831;SDS011;52593;42.648;23.332;2023-07-24T13:37:38;17.63;;;7.27;;
65831;SDS011;52593;42.648;23.332;2023-07-24T13:40:04;13.80;;;6.78;;
65831;SDS011;52593;42.648;23.332;2023-07-24T13:42:30;12.27;;;6.50;;
65831;SDS011;52593;42.648;23.332;2023-07-24T13:44:55;13.55;;;6.68;;
65831;SDS011;52593;42.648;23.332;2023-07-24T13:47:20;12.87;;;6.70;;
65831;SDS011;52593;42.648;23.332;2023-07-24T13:49:46;13.17;;;7.17;;
65831;SDS011;52593;42.648;23.332;2023-07-24T13:52:11;14.10;;;7.55;;
65831;SDS011;52593;42.648;23.332;2023-07-24T13:54:37;13.57;;;7.37;;
65831;SDS011;52593;42.648;23.332;2023-07-24T13:57:02;13.67;;;7.80;;
65831;SDS011;52593;42.648;23.332;2023-07-24T13:59:28;14.20;;;7.53;;
65831;SDS011;52593;42.648;23.332;2023-07-24T14:01:53;12.40;;;7.40;;
65831;SDS011;52593;42.648;23.332;2023-07-24T14:04:18;16.73;;;8.00;;
65831;SDS011;52593;42.648;23.332;2023-07-24T14:06:44;11.10;;;7.37;;
65831;SDS011;52593;42.648;23.332;2023-07-24T14:09:09;15.33;;;6.77;;
65831;SDS011;52593;42.648;23.332;2023-07-24T14:11:35;12.73;;;7.07;;
65831;SDS011;52593;42.648;23.332;2023-07-24T14:14:01;14.80;;;8.00;;
65831;SDS011;52593;42.648;23.332;2023-07-24T14:16:26;17.10;;;8.20;;
65831;SDS011;52593;42.648;23.332;2023-07-24T14:18:51;13.67;;;7.90;;
65831;SDS011;52593;42.648;23.332;2023-07-24T14:21:17;13.77;;;7.87;;
65831;SDS011;52593;42.648;23.332;2023-07-24T14:23:44;14.75;;;8.25;;